Cyclone, Texas
Current Conditions -  °F | °C
As of 2:55 PM on Tuesday 27 Jan 2015 (Local Time) from KT35 Reporting Station
Clear Clear  
Wind Chill: 76°   Ceiling: Unl
Heat Index: 76°   Visibility: 10mi
Dew Point: 44°   Wind: 0mph
Humidity: 32%   Direction: NA
Pressure: 30.12"   Gusts: NA
Location:  30.9882°N, 97.103°W
Report Text: KT35 272055Z AUTO 00000KT 10SM CLR 24/07 A3012 RMK AO2 T02440066
Loading
Personal Weather Stations






























Interactive Weather Map New forecast layout! Learn more

10-Day Weather Forecast

Advertisements
Track Severe Weather on mobile